createdAt,value
2018-10-17T00:00:30.540Z,13.57
2018-10-17T00:01:30.382Z,13.59
2018-10-17T00:02:30.468Z,13.57
2018-10-17T00:03:30.397Z,13.53
2018-10-17T00:04:30.491Z,13.56
2018-10-17T00:05:30.621Z,13.52
2018-10-17T00:06:30.402Z,13.55
2018-10-17T00:07:30.960Z,13.52
2018-10-17T00:08:30.343Z,13.53
2018-10-17T00:09:30.357Z,13.47
2018-10-17T00:10:30.434Z,13.47
2018-10-17T00:11:30.409Z,13.47
2018-10-17T00:12:30.391Z,13.47
2018-10-17T00:13:30.455Z,13.47
2018-10-17T00:14:30.355Z,13.47
2018-10-17T00:15:30.362Z,13.47
2018-10-17T00:16:30.333Z,13.46
2018-10-17T00:17:30.408Z,13.46
2018-10-17T00:18:30.331Z,13.46
2018-10-17T00:19:30.328Z,13.49
2018-10-17T00:20:30.336Z,13.42
2018-10-17T00:21:30.528Z,13.42
2018-10-17T00:23:30.400Z,13.42
2018-10-17T00:24:30.452Z,13.42
2018-10-17T00:25:30.332Z,13.39
2018-10-17T00:26:30.346Z,13.38
2018-10-17T00:27:30.354Z,13.36
2018-10-17T00:28:30.289Z,13.36
2018-10-17T00:29:30.353Z,13.34
2018-10-17T00:30:30.320Z,13.35
2018-10-17T00:31:30.674Z,13.34
2018-10-17T00:32:30.429Z,13.32
2018-10-17T00:33:30.323Z,13.32
2018-10-17T00:34:30.329Z,13.32
2018-10-17T00:35:30.302Z,13.34
2018-10-17T00:36:30.304Z,13.31
2018-10-17T00:37:30.317Z,13.27
2018-10-17T00:38:30.305Z,13.29
2018-10-17T00:39:30.278Z,13.27
2018-10-17T00:40:30.645Z,13.22
2018-10-17T00:41:30.337Z,13.18
2018-10-17T00:42:30.296Z,13.13
2018-10-17T00:43:30.291Z,13.13
2018-10-17T00:45:30.307Z,13.04
2018-10-17T00:46:30.340Z,13
2018-10-17T00:47:30.312Z,12.94
2018-10-17T00:48:30.293Z,12.9
2018-10-17T00:49:30.296Z,12.84
2018-10-17T00:50:30.376Z,12.8
2018-10-17T00:51:30.320Z,12.79
2018-10-17T00:52:30.352Z,12.83
2018-10-17T00:53:30.302Z,12.82
2018-10-17T00:54:30.375Z,12.77
2018-10-17T00:55:30.320Z,12.79
2018-10-17T00:56:30.414Z,12.74
2018-10-17T00:57:30.284Z,12.77
2018-10-17T00:58:30.697Z,12.76
2018-10-17T00:59:30.270Z,12.76
2018-10-17T01:00:30.677Z,12.73
2018-10-17T01:01:30.481Z,12.72
2018-10-17T01:02:30.535Z,12.73
2018-10-17T01:03:30.314Z,12.72
2018-10-17T01:04:30.620Z,12.73
2018-10-17T01:05:30.317Z,12.73
2018-10-17T01:06:30.346Z,12.74
2018-10-17T01:07:30.434Z,12.76
2018-10-17T01:08:30.291Z,12.76
2018-10-17T01:09:30.281Z,12.76
2018-10-17T01:10:30.408Z,12.77
2018-10-17T01:11:30.285Z,12.79
2018-10-17T01:12:30.363Z,12.8
2018-10-17T01:13:30.267Z,12.8
2018-10-17T01:14:30.373Z,12.77
2018-10-17T01:15:30.272Z,12.74
2018-10-17T01:16:30.421Z,12.73
2018-10-17T01:17:30.398Z,12.69
2018-10-17T01:18:30.713Z,12.66
2018-10-17T01:19:30.510Z,12.66
2018-10-17T01:20:30.361Z,12.67
2018-10-17T01:21:30.262Z,12.69
2018-10-17T01:22:30.248Z,12.7
2018-10-17T01:23:30.235Z,12.74
2018-10-17T01:24:30.291Z,12.73
2018-10-17T01:25:30.553Z,12.76
2018-10-17T01:26:30.433Z,12.77
2018-10-17T01:27:30.269Z,12.76
2018-10-17T01:28:30.278Z,12.77
2018-10-17T01:29:30.280Z,12.76
2018-10-17T01:30:30.356Z,12.76
2018-10-17T01:31:30.346Z,12.77
2018-10-17T01:32:30.253Z,12.72
2018-10-17T01:33:30.427Z,12.66
2018-10-17T01:34:30.236Z,12.59
2018-10-17T01:35:30.315Z,12.59
2018-10-17T01:36:30.465Z,12.53
2018-10-17T01:37:30.341Z,12.51
2018-10-17T01:38:30.445Z,12.52
2018-10-17T01:39:30.628Z,12.52
2018-10-17T01:40:30.336Z,12.46
2018-10-17T01:41:30.283Z,12.49
2018-10-17T01:42:30.499Z,12.52
2018-10-17T01:43:30.334Z,12.48
2018-10-17T01:44:30.342Z,12.44
2018-10-17T01:45:30.245Z,12.46
2018-10-17T01:46:30.291Z,12.45
2018-10-17T01:47:30.338Z,12.45
2018-10-17T01:48:30.387Z,12.45
2018-10-17T01:49:30.273Z,12.46
2018-10-17T01:50:30.267Z,12.45
2018-10-17T01:51:30.288Z,12.42
2018-10-17T01:52:30.538Z,12.39
2018-10-17T01:53:30.190Z,12.41
2018-10-17T01:54:30.195Z,12.38
2018-10-17T01:55:30.241Z,12.38
2018-10-17T01:56:30.297Z,12.35
2018-10-17T01:57:30.191Z,12.37
2018-10-17T01:58:30.258Z,12.39
2018-10-17T01:59:30.218Z,12.41
2018-10-17T02:00:30.294Z,12.38
2018-10-17T02:01:30.264Z,12.32
2018-10-17T02:02:30.197Z,12.32
2018-10-17T02:03:30.310Z,12.34
2018-10-17T02:04:30.192Z,12.34
2018-10-17T02:05:30.231Z,12.37
2018-10-17T02:06:30.215Z,12.34
2018-10-17T02:07:30.219Z,12.32
2018-10-17T02:08:30.283Z,12.29
2018-10-17T02:09:30.212Z,12.29
2018-10-17T02:10:30.201Z,12.32
2018-10-17T02:11:30.188Z,12.35
2018-10-17T02:12:30.360Z,12.35
2018-10-17T02:14:30.497Z,12.39
2018-10-17T02:15:30.339Z,12.38
2018-10-17T02:16:30.203Z,12.35
2018-10-17T02:17:30.168Z,12.38
2018-10-17T02:18:30.521Z,12.38
2018-10-17T02:19:30.378Z,12.38
2018-10-17T02:20:30.199Z,12.37
2018-10-17T02:21:30.237Z,12.37
2018-10-17T02:22:30.193Z,12.35
2018-10-17T02:23:30.278Z,12.38
2018-10-17T02:24:30.158Z,12.39
2018-10-17T02:25:30.186Z,12.39
2018-10-17T02:26:30.479Z,12.39
2018-10-17T02:27:30.171Z,12.39
2018-10-17T02:28:30.178Z,12.38
2018-10-17T02:29:30.395Z,12.32
2018-10-17T02:30:30.184Z,12.35
2018-10-17T02:31:30.217Z,12.32
2018-10-17T02:32:30.170Z,12.32
2018-10-17T02:33:30.163Z,12.32
2018-10-17T02:34:30.128Z,12.31
2018-10-17T02:35:30.137Z,12.31
2018-10-17T02:36:30.294Z,12.29
2018-10-17T02:37:30.385Z,12.29
2018-10-17T02:38:30.330Z,12.29
2018-10-17T02:39:30.447Z,12.24
2018-10-17T02:40:30.289Z,12.2
2018-10-17T02:41:30.189Z,12.18
2018-10-17T02:42:30.167Z,12.18
2018-10-17T02:43:30.269Z,12.16
2018-10-17T02:44:30.146Z,12.2
2018-10-17T02:45:30.138Z,12.17
2018-10-17T02:46:30.333Z,12.17
2018-10-17T02:47:30.180Z,12.17
2018-10-17T02:48:30.167Z,12.16
2018-10-17T02:49:30.522Z,12.13
2018-10-17T02:50:30.220Z,12.05
2018-10-17T02:51:30.204Z,12.08
2018-10-17T02:52:30.234Z,12.07
2018-10-17T02:53:30.142Z,12.01
2018-10-17T02:54:30.131Z,12
2018-10-17T02:55:30.122Z,12
2018-10-17T02:56:30.247Z,11.97
2018-10-17T02:57:30.143Z,11.96
2018-10-17T02:58:30.221Z,11.97
2018-10-17T02:59:30.150Z,11.96
2018-10-17T03:00:30.130Z,11.96
2018-10-17T03:01:30.348Z,11.97
2018-10-17T03:02:30.240Z,11.98
2018-10-17T03:03:30.515Z,11.96
2018-10-17T03:04:34.196Z,11.94
2018-10-17T03:05:30.199Z,11.97
2018-10-17T03:06:30.408Z,11.94
2018-10-17T03:07:30.355Z,11.94
2018-10-17T03:08:30.150Z,11.94
2018-10-17T03:09:30.363Z,11.93
2018-10-17T03:10:30.144Z,11.93
2018-10-17T03:11:30.141Z,11.92
2018-10-17T03:12:30.160Z,11.92
2018-10-17T03:13:30.133Z,11.9
2018-10-17T03:14:30.169Z,11.9
2018-10-17T03:15:30.121Z,11.89
2018-10-17T03:16:30.097Z,11.89
2018-10-17T03:17:30.107Z,11.89
2018-10-17T03:18:30.297Z,11.9
2018-10-17T03:19:30.093Z,11.89
2018-10-17T03:20:30.084Z,11.87
2018-10-17T03:21:30.134Z,11.87
2018-10-17T03:22:30.102Z,11.86
2018-10-17T03:23:30.354Z,11.84
2018-10-17T03:24:30.112Z,11.86
2018-10-17T03:25:30.127Z,11.84
2018-10-17T03:26:30.147Z,11.82
2018-10-17T03:27:30.097Z,11.84
2018-10-17T03:28:30.071Z,11.83
2018-10-17T03:29:30.065Z,11.84
2018-10-17T03:30:30.371Z,11.84
2018-10-17T03:31:30.643Z,11.84
2018-10-17T03:32:30.086Z,11.87
2018-10-17T03:33:30.144Z,11.83
2018-10-17T03:34:30.087Z,11.83
2018-10-17T03:35:30.232Z,11.83
2018-10-17T03:36:30.081Z,11.86
2018-10-17T03:37:30.082Z,11.84
2018-10-17T03:38:30.094Z,11.84
2018-10-17T03:39:30.065Z,11.83
2018-10-17T03:40:30.114Z,11.86
2018-10-17T03:41:30.111Z,11.83
2018-10-17T03:42:30.111Z,11.82
2018-10-17T03:43:30.056Z,11.8
2018-10-17T03:44:30.088Z,11.82
2018-10-17T03:45:30.503Z,11.8
2018-10-17T03:46:30.065Z,11.82
2018-10-17T03:47:30.111Z,11.77
2018-10-17T03:48:30.114Z,11.69
2018-10-17T03:49:30.278Z,11.68
2018-10-17T03:50:30.192Z,11.68
2018-10-17T03:51:30.014Z,11.65
2018-10-17T03:52:30.073Z,11.68
2018-10-17T03:53:30.046Z,11.69
2018-10-17T03:54:30.063Z,11.69
2018-10-17T03:55:30.148Z,11.66
2018-10-17T03:56:30.052Z,11.68
2018-10-17T03:57:30.162Z,11.65
2018-10-17T03:58:30.174Z,11.65
2018-10-17T03:59:31.201Z,11.66
2018-10-17T04:00:30.019Z,11.66
2018-10-17T04:01:30.038Z,11.66
2018-10-17T04:02:30.414Z,11.68
2018-10-17T04:03:30.081Z,11.68
2018-10-17T04:04:30.058Z,11.62
2018-10-17T04:05:30.191Z,11.62
2018-10-17T04:06:30.149Z,11.58
2018-10-17T04:07:30.016Z,11.56
2018-10-17T04:08:30.279Z,11.55
2018-10-17T04:09:30.402Z,11.55
2018-10-17T04:10:30.564Z,11.61
2018-10-17T04:11:30.088Z,11.61
2018-10-17T04:12:30.067Z,11.58
2018-10-17T04:13:30.120Z,11.54
2018-10-17T04:14:30.069Z,11.55
2018-10-17T04:15:30.132Z,11.54
2018-10-17T04:16:30.103Z,11.47
2018-10-17T04:17:30.148Z,11.45
2018-10-17T04:18:30.161Z,11.45
2018-10-17T04:19:30.527Z,11.48
2018-10-17T04:20:30.097Z,11.51
2018-10-17T04:21:30.014Z,11.51
2018-10-17T04:22:30.440Z,11.52
2018-10-17T04:23:30.084Z,11.52
2018-10-17T04:24:30.078Z,11.56
2018-10-17T04:25:30.120Z,11.58
2018-10-17T04:26:30.007Z,11.58
2018-10-17T04:27:30.131Z,11.56
2018-10-17T04:28:30.429Z,11.59
2018-10-17T04:29:30.128Z,11.58
2018-10-17T04:30:30.048Z,11.55
2018-10-17T04:31:30.283Z,11.54
2018-10-17T04:32:30.623Z,11.51
2018-10-17T04:33:30.280Z,11.51
2018-10-17T04:34:30.072Z,11.52
2018-10-17T04:35:30.011Z,11.45
2018-10-17T04:36:30.076Z,11.48
2018-10-17T04:37:30.530Z,11.49
2018-10-17T04:38:30.531Z,11.49
2018-10-17T04:39:30.110Z,11.49
2018-10-17T04:40:29.997Z,11.52
2018-10-17T04:41:30.404Z,11.54
2018-10-17T04:42:29.971Z,11.54
2018-10-17T04:43:30.291Z,11.52
2018-10-17T04:44:30.090Z,11.54
2018-10-17T04:45:30.030Z,11.48
2018-10-17T04:46:29.991Z,11.45
2018-10-17T04:47:30.068Z,11.45
2018-10-17T04:48:30.054Z,11.44
2018-10-17T04:49:29.966Z,11.44
2018-10-17T04:50:30.116Z,11.44
2018-10-17T04:51:29.994Z,11.47
2018-10-17T04:52:30.350Z,11.45
2018-10-17T04:53:30.248Z,11.41
2018-10-17T04:54:30.033Z,11.42
2018-10-17T04:55:29.980Z,11.38
2018-10-17T04:56:29.943Z,11.39
2018-10-17T04:57:30.022Z,11.35
2018-10-17T04:58:30.023Z,11.35
2018-10-17T04:59:29.992Z,11.32
2018-10-17T05:00:30.092Z,11.32
2018-10-17T05:01:30.000Z,11.3
2018-10-17T05:02:29.954Z,11.31
2018-10-17T05:03:29.935Z,11.3
2018-10-17T05:04:30.134Z,11.3
2018-10-17T05:05:29.977Z,11.31
2018-10-17T05:06:29.934Z,11.3
2018-10-17T05:07:30.006Z,11.3
2018-10-17T05:08:30.012Z,11.3
2018-10-17T05:09:29.546Z,11.31
2018-10-17T05:10:30.167Z,11.31
2018-10-17T05:11:30.071Z,11.31
2018-10-17T05:12:30.029Z,11.34
2018-10-17T05:13:30.195Z,11.35
2018-10-17T05:14:30.046Z,11.38
2018-10-17T05:15:30.033Z,11.39
2018-10-17T05:16:30.377Z,11.42
2018-10-17T05:17:30.275Z,11.44
2018-10-17T05:18:30.204Z,11.48
2018-10-17T05:19:30.196Z,11.47
2018-10-17T05:20:30.088Z,11.49
2018-10-17T05:21:30.029Z,11.52
2018-10-17T05:22:30.214Z,11.55
2018-10-17T05:23:29.965Z,11.52
2018-10-17T05:24:30.166Z,11.47
2018-10-17T05:25:29.815Z,11.37
2018-10-17T05:26:30.047Z,11.34
2018-10-17T05:27:29.937Z,11.3
2018-10-17T05:28:30.022Z,11.28
2018-10-17T05:29:29.988Z,11.27
2018-10-17T05:30:30.003Z,11.24
2018-10-17T05:31:30.301Z,11.24
2018-10-17T05:32:30.205Z,11.21
2018-10-17T05:33:29.993Z,11.25
2018-10-17T05:34:29.988Z,11.25
2018-10-17T05:35:30.047Z,11.27
2018-10-17T05:36:29.909Z,11.28
2018-10-17T05:37:30.332Z,11.28
2018-10-17T05:38:30.005Z,11.3
2018-10-17T05:39:29.882Z,11.3
2018-10-17T05:40:30.010Z,11.3
2018-10-17T05:41:29.932Z,11.31
2018-10-17T05:42:29.998Z,11.32
2018-10-17T05:43:29.961Z,11.31
2018-10-17T05:44:30.326Z,11.31
2018-10-17T05:45:30.097Z,11.3
2018-10-17T05:46:30.097Z,11.3
2018-10-17T05:47:30.004Z,11.3
2018-10-17T05:48:30.016Z,11.3
2018-10-17T05:49:29.900Z,11.28
2018-10-17T05:50:29.789Z,11.28
2018-10-17T05:51:30.020Z,11.25
2018-10-17T05:52:29.949Z,11.25
2018-10-17T05:53:29.971Z,11.25
2018-10-17T05:54:30.058Z,11.24
2018-10-17T05:55:30.079Z,11.25
2018-10-17T05:56:29.767Z,11.24
2018-10-17T05:57:30.000Z,11.25
2018-10-17T05:58:30.060Z,11.24
2018-10-17T05:59:29.897Z,11.25
2018-10-17T06:00:29.961Z,11.25
2018-10-17T06:01:30.228Z,11.27
2018-10-17T06:02:30.554Z,11.27
2018-10-17T06:03:29.911Z,11.27
2018-10-17T06:04:30.280Z,11.28
2018-10-17T06:05:30.234Z,11.28
2018-10-17T06:06:29.835Z,11.3
2018-10-17T06:07:29.987Z,11.3
2018-10-17T06:08:29.903Z,11.31
2018-10-17T06:09:30.152Z,11.32
2018-10-17T06:10:29.966Z,11.38
2018-10-17T06:11:30.025Z,11.35
2018-10-17T06:12:30.173Z,11.37
2018-10-17T06:13:30.131Z,11.39
2018-10-17T06:14:30.297Z,11.39
2018-10-17T06:15:29.991Z,11.41
2018-10-17T06:16:30.127Z,11.41
2018-10-17T06:17:30.519Z,11.39
2018-10-17T06:18:29.972Z,11.42
2018-10-17T06:19:29.862Z,11.44
2018-10-17T06:20:29.857Z,11.44
2018-10-17T06:21:29.873Z,11.44
2018-10-17T06:22:29.966Z,11.42
2018-10-17T06:23:29.849Z,11.42
2018-10-17T06:24:30.243Z,11.42
2018-10-17T06:25:30.274Z,11.39
2018-10-17T06:26:30.326Z,11.42
2018-10-17T06:27:29.980Z,11.41
2018-10-17T06:28:30.260Z,11.39
2018-10-17T06:29:29.863Z,11.44
2018-10-17T06:30:29.964Z,11.44
2018-10-17T06:31:29.871Z,11.44
2018-10-17T06:32:29.824Z,11.44
2018-10-17T06:33:29.846Z,11.45
2018-10-17T06:34:30.024Z,11.48
2018-10-17T06:35:29.821Z,11.49
2018-10-17T06:36:30.135Z,11.51
2018-10-17T06:37:29.875Z,11.51
2018-10-17T06:38:29.831Z,11.55
2018-10-17T06:39:29.836Z,11.56
2018-10-17T06:40:29.844Z,11.58
2018-10-17T06:41:29.907Z,11.61
2018-10-17T06:42:29.846Z,11.62
2018-10-17T06:43:30.179Z,11.64
2018-10-17T06:44:29.835Z,11.65
2018-10-17T06:45:30.093Z,11.64
2018-10-17T06:46:29.981Z,11.66
2018-10-17T06:47:29.907Z,11.66
2018-10-17T06:48:29.950Z,11.72
2018-10-17T06:49:30.223Z,11.72
2018-10-17T06:50:29.837Z,11.73
2018-10-17T06:51:29.836Z,11.76
2018-10-17T06:52:30.151Z,11.77
2018-10-17T06:53:29.911Z,11.82
2018-10-17T06:54:30.689Z,11.83
2018-10-17T06:55:29.786Z,11.84
2018-10-17T06:56:29.848Z,11.86
2018-10-17T06:57:30.196Z,11.92
2018-10-17T06:58:29.833Z,11.93
2018-10-17T06:59:29.814Z,11.94
2018-10-17T07:00:29.830Z,12
2018-10-17T07:01:29.890Z,12
2018-10-17T07:02:29.826Z,12
2018-10-17T07:03:30.116Z,12
2018-10-17T07:04:30.019Z,12.04
2018-10-17T07:05:29.807Z,12.07
2018-10-17T07:06:30.039Z,12.11
2018-10-17T07:07:30.056Z,12.13
2018-10-17T07:08:30.118Z,12.17
2018-10-17T07:09:30.063Z,12.2
2018-10-17T07:10:29.792Z,12.23
2018-10-17T07:11:30.066Z,12.25
2018-10-17T07:12:29.779Z,12.31
2018-10-17T07:13:29.846Z,12.31
2018-10-17T07:14:29.759Z,12.35
2018-10-17T07:15:30.322Z,12.38
2018-10-17T07:16:29.757Z,12.41
2018-10-17T07:17:30.005Z,12.45
2018-10-17T07:18:29.813Z,12.48
2018-10-17T07:19:29.775Z,12.51
2018-10-17T07:20:29.930Z,12.55
2018-10-17T07:21:29.893Z,12.57
2018-10-17T07:22:30.080Z,12.6
2018-10-17T07:23:29.788Z,12.63
2018-10-17T07:24:29.801Z,12.65
2018-10-17T07:25:29.784Z,12.67
2018-10-17T07:26:29.823Z,12.66
2018-10-17T07:27:29.853Z,12.66
2018-10-17T07:28:30.086Z,12.69
2018-10-17T07:29:30.794Z,12.67
2018-10-17T07:30:29.950Z,12.6
2018-10-17T07:31:29.788Z,12.6
2018-10-17T07:32:30.116Z,12.6
2018-10-17T07:33:29.748Z,12.62
2018-10-17T07:34:30.019Z,12.63
2018-10-17T07:35:30.170Z,12.63
2018-10-17T07:36:29.750Z,12.63
2018-10-17T07:37:30.031Z,12.66
2018-10-17T07:38:30.137Z,12.59
2018-10-17T07:39:29.784Z,12.57
2018-10-17T07:40:29.824Z,12.65
2018-10-17T07:41:29.769Z,12.69
2018-10-17T07:42:29.780Z,12.7
2018-10-17T07:43:29.781Z,12.73
2018-10-17T07:44:29.895Z,12.74
2018-10-17T07:45:29.992Z,12.76
2018-10-17T07:46:29.990Z,12.79
2018-10-17T07:47:29.784Z,12.79
2018-10-17T07:48:29.718Z,12.8
2018-10-17T07:49:29.763Z,12.83
2018-10-17T07:50:29.783Z,12.88
2018-10-17T07:51:29.716Z,12.93
2018-10-17T07:52:29.793Z,12.96
2018-10-17T07:53:30.455Z,13
2018-10-17T07:54:29.714Z,13.01
2018-10-17T07:55:29.732Z,13.06
2018-10-17T07:56:29.735Z,13.1
2018-10-17T07:57:29.737Z,13.13
2018-10-17T07:58:29.738Z,13.15
2018-10-17T07:59:29.879Z,13.21
2018-10-17T08:00:30.398Z,13.21
2018-10-17T08:01:29.703Z,13.27
2018-10-17T08:02:29.760Z,13.28
2018-10-17T08:03:30.028Z,13.29
2018-10-17T08:04:29.748Z,13.32
2018-10-17T08:05:29.788Z,13.36
2018-10-17T08:06:30.003Z,13.39
2018-10-17T08:07:29.817Z,13.41
2018-10-17T08:08:30.115Z,13.45
2018-10-17T08:09:29.714Z,13.49
2018-10-17T08:10:29.704Z,13.49
2018-10-17T08:11:29.735Z,13.52
2018-10-17T08:12:29.775Z,13.52
2018-10-17T08:13:29.744Z,13.53
2018-10-17T08:14:29.782Z,13.57
2018-10-17T08:15:29.685Z,13.53
2018-10-17T08:16:30.076Z,13.55
2018-10-17T08:17:29.845Z,13.59
2018-10-17T08:18:29.717Z,13.62
2018-10-17T08:19:29.681Z,13.67
2018-10-17T08:20:29.723Z,13.69
2018-10-17T08:21:30.295Z,13.74
2018-10-17T08:22:29.782Z,13.76
2018-10-17T08:23:30.059Z,13.74
2018-10-17T08:24:29.669Z,13.79
2018-10-17T08:25:29.691Z,13.84
2018-10-17T08:26:29.685Z,13.84
2018-10-17T08:27:30.228Z,13.89
2018-10-17T08:28:29.897Z,13.9
2018-10-17T08:29:29.710Z,13.93
2018-10-17T08:30:29.788Z,13.96
2018-10-17T08:31:29.700Z,14
2018-10-17T08:32:29.688Z,14
2018-10-17T08:33:30.410Z,14.02
2018-10-17T08:34:30.022Z,14.08
2018-10-17T08:35:30.840Z,14.14
2018-10-17T08:36:30.986Z,14.14
2018-10-17T08:37:32.190Z,14.18
2018-10-17T08:38:29.667Z,14.22
2018-10-17T08:39:29.735Z,14.27
2018-10-17T08:40:29.670Z,14.31
2018-10-17T08:41:29.817Z,14.32
2018-10-17T08:42:30.150Z,14.35
2018-10-17T08:43:29.813Z,14.38
2018-10-17T08:44:30.003Z,14.4
2018-10-17T08:45:29.752Z,14.48
2018-10-17T08:47:29.712Z,14.51
2018-10-17T08:48:29.941Z,14.56
2018-10-17T08:49:29.722Z,14.58
2018-10-17T08:50:29.831Z,14.64
2018-10-17T08:51:29.736Z,14.74
2018-10-17T08:52:29.640Z,14.77
2018-10-17T08:53:29.775Z,14.81
2018-10-17T08:54:29.748Z,14.81
2018-10-17T08:55:29.644Z,14.87
2018-10-17T08:56:29.772Z,14.91
2018-10-17T08:57:29.802Z,14.94
2018-10-17T08:58:29.746Z,15.04
2018-10-17T08:59:29.729Z,15.07
2018-10-17T09:00:29.832Z,15.08
2018-10-17T09:01:29.659Z,15.09
2018-10-17T09:02:29.757Z,15.12
2018-10-17T09:03:29.668Z,15.15
2018-10-17T09:04:29.620Z,15.17
2018-10-17T09:05:30.475Z,15.19
2018-10-17T09:06:29.925Z,15.23
2018-10-17T09:07:29.647Z,15.25
2018-10-17T09:08:29.756Z,15.32
2018-10-17T09:09:29.635Z,15.36
2018-10-17T09:10:29.619Z,15.36
2018-10-17T09:11:29.669Z,15.38
2018-10-17T09:12:29.631Z,15.43
2018-10-17T09:13:29.816Z,15.45
2018-10-17T09:14:29.630Z,15.52
2018-10-17T09:15:29.678Z,15.57
2018-10-17T09:16:29.879Z,15.59
2018-10-17T09:17:29.629Z,15.74
2018-10-17T09:18:29.618Z,15.82
2018-10-17T09:19:30.323Z,15.94
2018-10-17T09:20:30.701Z,15.98
2018-10-17T09:21:30.663Z,16.04
2018-10-17T09:22:30.037Z,16.09
2018-10-17T09:23:29.640Z,16.11
2018-10-17T09:24:29.670Z,16.11
2018-10-17T09:25:29.773Z,16.14
2018-10-17T09:26:29.617Z,16.14
2018-10-17T09:27:29.811Z,16.16
2018-10-17T09:28:29.642Z,16.26
2018-10-17T09:29:29.639Z,16.29
2018-10-17T09:30:30.350Z,16.31
2018-10-17T09:31:29.686Z,16.36
2018-10-17T09:32:29.732Z,16.37
2018-10-17T09:33:29.622Z,16.42
2018-10-17T09:34:29.586Z,16.45
2018-10-17T09:35:29.742Z,16.45
2018-10-17T09:36:29.705Z,16.46
2018-10-17T09:37:29.579Z,16.53
2018-10-17T09:38:29.640Z,16.6
2018-10-17T09:39:29.788Z,16.67
2018-10-17T09:40:29.616Z,16.67
2018-10-17T09:41:29.917Z,16.71
2018-10-17T09:42:29.750Z,16.78
2018-10-17T09:43:29.632Z,16.78
2018-10-17T09:44:29.728Z,16.78
2018-10-17T09:45:29.630Z,16.8
2018-10-17T09:46:29.571Z,16.84
2018-10-17T09:47:29.632Z,16.94
2018-10-17T09:48:29.694Z,16.99
2018-10-17T09:49:29.674Z,16.95
2018-10-17T09:50:29.708Z,16.98
2018-10-17T09:51:29.919Z,16.98
2018-10-17T09:52:29.700Z,17.01
2018-10-17T09:53:30.192Z,17.05
2018-10-17T09:54:29.730Z,17.05
2018-10-17T09:55:29.680Z,17.11
2018-10-17T09:56:29.742Z,17.16
2018-10-17T09:57:29.640Z,17.18
2018-10-17T09:58:29.700Z,17.26
2018-10-17T09:59:29.950Z,17.26
2018-10-17T10:00:29.605Z,17.29
2018-10-17T10:01:29.729Z,17.33
2018-10-17T10:02:30.088Z,17.44
2018-10-17T10:03:29.598Z,17.44
2018-10-17T10:04:29.606Z,17.52
2018-10-17T10:05:29.625Z,17.54
2018-10-17T10:06:29.717Z,17.57
2018-10-17T10:07:29.640Z,17.71
2018-10-17T10:08:29.614Z,17.73
2018-10-17T10:09:29.564Z,17.82
2018-10-17T10:10:29.662Z,17.81
2018-10-17T10:11:29.667Z,17.84
2018-10-17T10:12:29.617Z,17.88
2018-10-17T10:13:29.681Z,17.91
2018-10-17T10:14:29.719Z,17.94
2018-10-17T10:15:29.679Z,17.97
2018-10-17T10:16:29.633Z,17.99
2018-10-17T10:17:29.832Z,17.99
2018-10-17T10:18:29.612Z,18.02
2018-10-17T10:19:29.598Z,18.04
2018-10-17T10:20:29.684Z,18.08
2018-10-17T10:21:29.537Z,18.26
2018-10-17T10:22:35.815Z,18.27
2018-10-17T10:23:29.760Z,18.26
2018-10-17T10:24:30.276Z,18.23
2018-10-17T10:25:29.554Z,18.3
2018-10-17T10:26:29.589Z,18.3
2018-10-17T10:27:29.613Z,18.43
2018-10-17T10:28:30.239Z,18.4
2018-10-17T10:29:29.559Z,18.39
2018-10-17T10:30:29.607Z,18.4
2018-10-17T10:31:29.605Z,18.39
2018-10-17T10:32:29.681Z,18.43
2018-10-17T10:33:29.535Z,18.49
2018-10-17T10:34:29.573Z,18.52
2018-10-17T10:35:29.887Z,18.53
2018-10-17T10:36:29.534Z,18.54
2018-10-17T10:37:29.605Z,18.57
2018-10-17T10:38:29.515Z,18.61
2018-10-17T10:39:29.770Z,18.61
2018-10-17T10:40:29.742Z,18.71
2018-10-17T10:41:29.572Z,18.71
2018-10-17T10:42:29.583Z,18.8
2018-10-17T10:43:29.541Z,18.84
2018-10-17T10:45:29.689Z,18.77
2018-10-17T10:46:29.800Z,18.72
2018-10-17T10:47:29.541Z,18.82
2018-10-17T10:48:29.528Z,18.8
2018-10-17T10:49:29.531Z,18.78
2018-10-17T10:50:29.531Z,18.8
2018-10-17T10:51:29.808Z,18.8
2018-10-17T10:52:29.541Z,18.82
2018-10-17T10:53:29.577Z,18.89
2018-10-17T10:54:29.922Z,18.85
2018-10-17T10:55:29.487Z,18.85
2018-10-17T10:56:29.546Z,18.84
2018-10-17T10:57:29.671Z,18.84
2018-10-17T10:58:30.284Z,18.88
2018-10-17T10:59:30.364Z,18.88
2018-10-17T11:00:29.507Z,18.88
2018-10-17T11:01:29.706Z,18.87
2018-10-17T11:02:29.611Z,18.84
2018-10-17T11:03:29.813Z,18.88
2018-10-17T11:04:29.736Z,18.89
2018-10-17T11:05:30.771Z,18.99
2018-10-17T11:06:29.537Z,19.02
2018-10-17T11:07:29.505Z,18.99
2018-10-17T11:08:29.451Z,19.23
2018-10-17T11:09:29.516Z,19.3
2018-10-17T11:10:29.494Z,19.21
2018-10-17T11:11:29.719Z,19.21
2018-10-17T11:12:29.677Z,19.22
2018-10-17T11:13:29.483Z,19.23
2018-10-17T11:14:30.230Z,19.22
2018-10-17T11:15:29.616Z,19.25
2018-10-17T11:16:29.532Z,19.27
2018-10-17T11:17:29.573Z,19.29
2018-10-17T11:18:29.802Z,19.33
2018-10-17T11:19:29.094Z,19.34
2018-10-17T11:20:29.667Z,19.3
2018-10-17T11:21:29.437Z,19.34
2018-10-17T11:22:29.668Z,19.4
2018-10-17T11:23:29.437Z,19.39
2018-10-17T11:24:29.479Z,19.43
2018-10-17T11:25:29.539Z,19.42
2018-10-17T11:26:29.440Z,19.4
2018-10-17T11:27:29.895Z,19.42
2018-10-17T11:28:29.463Z,19.42
2018-10-17T11:29:29.491Z,19.44
2018-10-17T11:30:29.608Z,19.51
2018-10-17T11:31:29.744Z,19.49
2018-10-17T11:32:29.432Z,19.5
2018-10-17T11:33:29.578Z,19.5
2018-10-17T11:34:29.453Z,19.68
2018-10-17T11:35:29.418Z,19.68
2018-10-17T11:36:29.423Z,19.67
2018-10-17T11:37:30.027Z,19.71
2018-10-17T11:38:29.593Z,19.72
2018-10-17T11:39:29.555Z,19.82
2018-10-17T11:40:29.743Z,19.78
2018-10-17T11:41:29.754Z,19.75
2018-10-17T11:42:29.525Z,19.82
2018-10-17T11:43:29.608Z,19.82
2018-10-17T11:44:29.411Z,19.82
2018-10-17T11:45:29.447Z,19.85
2018-10-17T11:46:29.415Z,19.95
2018-10-17T11:47:29.664Z,19.98
2018-10-17T11:48:29.545Z,20.08
2018-10-17T11:49:29.607Z,20.2
2018-10-17T11:50:29.537Z,20.19
2018-10-17T11:51:29.539Z,20.27
2018-10-17T11:52:29.524Z,20.32
2018-10-17T11:53:29.519Z,20.29
2018-10-17T11:54:29.461Z,20.29
2018-10-17T11:55:29.394Z,20.32
2018-10-17T11:56:29.657Z,20.32
2018-10-17T11:57:29.443Z,20.32
2018-10-17T11:58:29.435Z,20.33
2018-10-17T11:59:29.548Z,20.37
2018-10-17T12:00:29.405Z,20.47
2018-10-17T12:01:29.509Z,20.54
2018-10-17T12:02:29.405Z,20.67
2018-10-17T12:03:29.681Z,20.71
2018-10-17T12:04:30.487Z,20.77
2018-10-17T12:05:31.064Z,20.71
2018-10-17T12:06:30.047Z,20.65
2018-10-17T12:07:29.432Z,20.67
2018-10-17T12:08:29.492Z,20.67
2018-10-17T12:09:29.464Z,20.65
2018-10-17T12:10:29.392Z,20.67
2018-10-17T12:11:29.994Z,20.64
2018-10-17T12:12:29.620Z,20.65
2018-10-17T12:13:29.536Z,20.68
2018-10-17T12:14:29.387Z,20.78
2018-10-17T12:15:29.499Z,20.81
2018-10-17T12:16:29.464Z,20.84
2018-10-17T12:17:29.393Z,20.91
2018-10-17T12:18:29.452Z,20.91
2018-10-17T12:19:29.451Z,20.88
2018-10-17T12:20:29.412Z,20.96
2018-10-17T12:21:29.997Z,20.92
2018-10-17T12:22:29.431Z,21.03
2018-10-17T12:23:29.557Z,21.1
2018-10-17T12:24:29.404Z,21.15
2018-10-17T12:25:29.456Z,21.09
2018-10-17T12:26:29.350Z,21.1
2018-10-17T12:27:29.479Z,21.06
2018-10-17T12:28:29.991Z,21.1
2018-10-17T12:29:29.407Z,21.12
2018-10-17T12:30:29.820Z,21.12
2018-10-17T12:31:29.391Z,21.16
2018-10-17T12:32:29.475Z,21.1
2018-10-17T12:33:29.367Z,21.1
2018-10-17T12:34:29.465Z,21.12
2018-10-17T12:35:29.393Z,21.19
2018-10-17T12:36:29.384Z,21.17
2018-10-17T12:37:29.461Z,21.19
2018-10-17T12:38:29.789Z,21.17
2018-10-17T12:39:30.288Z,21.13
2018-10-17T12:40:30.115Z,21.2
2018-10-17T12:41:29.786Z,21.2
2018-10-17T12:42:29.401Z,21.24
2018-10-17T12:43:29.413Z,21.23
2018-10-17T12:44:29.498Z,21.22
2018-10-17T12:45:29.577Z,21.24
2018-10-17T12:46:29.720Z,21.2
2018-10-17T12:47:29.460Z,21.19
2018-10-17T12:48:29.373Z,21.16
2018-10-17T12:49:29.452Z,21.19
2018-10-17T12:50:29.378Z,21.22
2018-10-17T12:51:29.357Z,21.19
2018-10-17T12:52:30.061Z,21.22
2018-10-17T12:53:29.657Z,21.26
2018-10-17T12:54:29.462Z,21.27
2018-10-17T12:55:29.471Z,21.32
2018-10-17T12:56:29.712Z,21.39
2018-10-17T12:57:29.410Z,21.36
2018-10-17T12:58:29.610Z,21.37
2018-10-17T12:59:29.400Z,21.41
2018-10-17T13:00:29.397Z,21.4